createdAt,value
2023-01-09T00:01:51.847Z,5.04
2023-01-09T00:04:59.951Z,5.05
2023-01-09T00:08:04.367Z,5.03
2023-01-09T00:11:11.045Z,4.99
2023-01-09T00:14:19.057Z,5.05
2023-01-09T00:17:26.654Z,5.03
2023-01-09T00:20:29.869Z,5.00
2023-01-09T00:23:35.443Z,5.02
2023-01-09T00:26:39.125Z,4.97
2023-01-09T00:29:48.851Z,4.98
2023-01-09T00:32:55.019Z,5.01
2023-01-09T00:35:59.540Z,5.00
2023-01-09T00:39:03.256Z,5.01
2023-01-09T00:42:10.646Z,5.00
2023-01-09T00:45:23.705Z,5.14
2023-01-09T00:48:28.704Z,5.17
2023-01-09T00:51:43.674Z,5.25
2023-01-09T00:54:48.099Z,5.27
2023-01-09T00:57:59.467Z,5.22
2023-01-09T01:01:06.147Z,5.22
2023-01-09T01:04:31.287Z,5.25
2023-01-09T01:07:43.685Z,5.23
2023-01-09T01:10:54.483Z,5.23
2023-01-09T01:14:00.314Z,5.21
2023-01-09T01:17:03.763Z,5.21
2023-01-09T01:20:11.225Z,5.28
2023-01-09T01:23:15.478Z,5.33
2023-01-09T01:26:18.836Z,5.44
2023-01-09T01:29:24.484Z,5.41
2023-01-09T01:32:34.624Z,5.44
2023-01-09T01:35:39.064Z,5.40
2023-01-09T01:38:45.604Z,5.43
2023-01-09T01:41:49.342Z,5.50
2023-01-09T01:45:17.127Z,5.64
2023-01-09T01:48:31.578Z,5.70
2023-01-09T01:51:43.575Z,5.79
2023-01-09T01:54:51.806Z,5.83
2023-01-09T01:58:00.808Z,5.86
2023-01-09T02:01:07.055Z,5.90
2023-01-09T02:04:11.914Z,5.91
2023-01-09T02:07:17.368Z,5.97
2023-01-09T02:10:24.455Z,6.04
2023-01-09T02:13:31.783Z,6.06
2023-01-09T02:17:02.963Z,6.08
2023-01-09T02:20:56.061Z,6.10
2023-01-09T02:24:12.062Z,6.10
2023-01-09T02:27:46.893Z,6.12
2023-01-09T02:31:25.749Z,6.17
2023-01-09T02:34:48.689Z,6.21
2023-01-09T02:38:00.920Z,6.26
2023-01-09T02:41:15.776Z,6.31
2023-01-09T02:44:25.938Z,6.31
2023-01-09T02:47:38.048Z,6.36
2023-01-09T02:50:49.094Z,6.44
2023-01-09T02:54:09.230Z,6.48
2023-01-09T02:57:44.647Z,6.48
2023-01-09T03:00:59.717Z,6.53
2023-01-09T03:04:45.602Z,6.55
2023-01-09T03:07:58.498Z,6.55
2023-01-09T03:11:08.903Z,6.55
2023-01-09T03:14:18.564Z,6.53
2023-01-09T03:17:32.789Z,6.54
2023-01-09T03:20:39.485Z,6.49
2023-01-09T03:24:01.835Z,6.48
2023-01-09T03:27:10.705Z,6.51
2023-01-09T03:30:15.879Z,6.57
2023-01-09T03:33:22.146Z,6.56
2023-01-09T03:36:25.858Z,6.60
2023-01-09T03:39:30.480Z,6.59
2023-01-09T03:42:33.875Z,6.56
2023-01-09T03:45:38.318Z,6.59
2023-01-09T03:48:42.946Z,6.54
2023-01-09T03:51:46.947Z,6.59
2023-01-09T03:54:53.670Z,6.60
2023-01-09T03:57:57.637Z,6.59
2023-01-09T04:01:05.256Z,6.54
2023-01-09T04:04:09.922Z,6.56
2023-01-09T04:07:15.744Z,6.54
2023-01-09T04:10:19.943Z,6.54
2023-01-09T04:13:23.611Z,6.60
2023-01-09T04:16:27.242Z,6.60
2023-01-09T04:19:30.463Z,6.63
2023-01-09T04:22:34.165Z,6.66
2023-01-09T04:25:37.568Z,6.77
2023-01-09T04:28:41.867Z,6.87
2023-01-09T04:31:47.514Z,6.98
2023-01-09T04:34:51.710Z,6.95
2023-01-09T04:37:56.297Z,6.92
2023-01-09T04:41:00.283Z,6.96
2023-01-09T04:44:05.731Z,7.00
2023-01-09T04:47:12.625Z,6.86
2023-01-09T04:50:16.332Z,6.73
2023-01-09T04:53:20.452Z,6.67
2023-01-09T04:56:23.792Z,6.64
2023-01-09T04:59:28.030Z,6.56
2023-01-09T05:02:31.251Z,6.55
2023-01-09T05:05:34.445Z,6.49
2023-01-09T05:08:40.200Z,6.44
2023-01-09T05:11:43.804Z,6.41
2023-01-09T05:14:48.667Z,6.37
2023-01-09T05:17:58.209Z,6.41
2023-01-09T05:21:00.974Z,6.48
2023-01-09T05:24:04.597Z,6.49
2023-01-09T05:27:08.891Z,6.48
2023-01-09T05:30:14.334Z,6.58
2023-01-09T05:33:18.535Z,6.61
2023-01-09T05:36:21.858Z,6.58
2023-01-09T05:39:25.986Z,6.56
2023-01-09T05:42:30.726Z,6.53
2023-01-09T05:45:36.352Z,6.51
2023-01-09T05:48:42.735Z,6.55
2023-01-09T05:51:49.095Z,6.58
2023-01-09T05:54:52.408Z,6.61
2023-01-09T05:57:56.000Z,6.59
2023-01-09T06:00:59.775Z,6.56
2023-01-09T06:04:03.731Z,6.59
2023-01-09T06:07:07.202Z,6.64
2023-01-09T06:10:14.591Z,6.62
2023-01-09T06:13:18.560Z,6.64
2023-01-09T06:16:22.249Z,6.65
2023-01-09T06:19:26.991Z,6.60
2023-01-09T06:22:29.761Z,6.64
2023-01-09T06:25:32.537Z,6.65
2023-01-09T06:28:35.814Z,6.67
2023-01-09T06:31:39.125Z,6.66
2023-01-09T06:34:43.539Z,6.66
2023-01-09T06:37:50.446Z,6.71
2023-01-09T06:40:54.251Z,6.76
2023-01-09T06:43:59.561Z,6.84
2023-01-09T06:47:07.588Z,6.81
2023-01-09T06:50:11.841Z,6.79
2023-01-09T06:53:15.933Z,6.82
2023-01-09T06:56:20.568Z,6.78
2023-01-09T06:59:25.600Z,6.81
2023-01-09T07:02:29.730Z,6.84
2023-01-09T07:05:40.800Z,6.85
2023-01-09T07:08:45.027Z,6.84
2023-01-09T07:11:50.935Z,6.76
2023-01-09T07:14:57.568Z,6.72
2023-01-09T07:18:01.196Z,6.70
2023-01-09T07:21:07.398Z,6.64
2023-01-09T07:24:10.222Z,6.62
2023-01-09T07:27:14.588Z,6.67
2023-01-09T07:30:17.922Z,6.73
2023-01-09T07:33:20.893Z,6.70
2023-01-09T07:36:25.442Z,6.79
2023-01-09T07:39:27.990Z,6.80
2023-01-09T07:42:31.720Z,6.83
2023-01-09T07:45:36.263Z,6.94
2023-01-09T07:48:40.914Z,7.06
2023-01-09T07:51:45.303Z,7.15
2023-01-09T07:54:48.803Z,7.23
2023-01-09T07:57:53.436Z,7.25
2023-01-09T08:00:58.032Z,7.27
2023-01-09T08:04:06.179Z,7.25
2023-01-09T08:07:13.498Z,7.25
2023-01-09T08:10:20.751Z,7.19
2023-01-09T08:13:25.274Z,7.17
2023-01-09T08:16:32.153Z,7.09
2023-01-09T08:19:35.341Z,7.03
2023-01-09T08:22:41.601Z,6.95
2023-01-09T08:25:45.227Z,6.75
2023-01-09T08:28:51.072Z,6.56
2023-01-09T08:31:54.703Z,6.47
2023-01-09T08:34:58.227Z,6.39
2023-01-09T08:38:01.369Z,6.18
2023-01-09T08:41:22.559Z,5.99
2023-01-09T08:44:43.812Z,6.03
2023-01-09T08:47:46.644Z,6.12
2023-01-09T08:50:49.180Z,6.16
2023-01-09T08:53:51.584Z,6.17
2023-01-09T08:56:55.042Z,6.12
2023-01-09T08:59:57.662Z,6.08
2023-01-09T09:03:01.925Z,5.98
2023-01-09T09:06:04.417Z,5.81
2023-01-09T09:09:07.498Z,5.83
2023-01-09T09:12:10.180Z,5.80
2023-01-09T09:15:13.081Z,5.83
2023-01-09T09:18:15.509Z,5.86
2023-01-09T09:21:18.135Z,5.87
2023-01-09T09:24:20.670Z,5.86
2023-01-09T09:27:23.394Z,5.75
2023-01-09T09:30:26.111Z,5.73
2023-01-09T09:33:30.656Z,5.85
2023-01-09T09:36:34.405Z,5.83
2023-01-09T09:39:36.876Z,5.86
2023-01-09T09:43:15.609Z,5.82
2023-01-09T09:46:47.697Z,5.82
2023-01-09T09:50:28.918Z,5.85
2023-01-09T09:53:49.357Z,5.71
2023-01-09T09:56:56.492Z,5.77
2023-01-09T09:59:59.133Z,5.81
2023-01-09T10:03:06.753Z,5.81
2023-01-09T10:06:18.338Z,5.81
2023-01-09T10:09:26.769Z,5.79
2023-01-09T10:13:26.194Z,5.65
2023-01-09T10:16:45.404Z,5.70
2023-01-09T10:20:00.600Z,5.70
2023-01-09T10:23:24.572Z,5.67
2023-01-09T10:26:44.944Z,5.61
2023-01-09T10:29:50.051Z,5.63
2023-01-09T10:33:04.958Z,5.47
2023-01-09T10:39:56.133Z,5.57
2023-01-09T10:47:29.060Z,5.62
2023-01-09T10:50:39.341Z,5.62
2023-01-09T10:53:46.379Z,5.63
2023-01-09T10:56:56.119Z,5.54
2023-01-09T11:00:28.026Z,5.57
2023-01-09T11:03:41.845Z,5.55
2023-01-09T11:06:50.562Z,5.54
2023-01-09T11:10:14.833Z,5.63
2023-01-09T11:13:37.649Z,5.69
2023-01-09T11:16:51.984Z,5.72
2023-01-09T11:20:30.841Z,5.65
2023-01-09T11:23:37.019Z,5.69
2023-01-09T11:26:48.066Z,5.64
2023-01-09T11:30:11.905Z,5.69
2023-01-09T11:33:35.065Z,5.74
2023-01-09T11:44:37.015Z,5.81
2023-01-09T11:47:41.229Z,5.74
2023-01-09T11:50:55.023Z,5.78
2023-01-09T11:54:18.351Z,5.83
2023-01-09T11:57:22.757Z,5.92
2023-01-09T12:00:28.776Z,5.89
2023-01-09T12:03:57.822Z,5.89
2023-01-09T12:07:24.686Z,5.88
2023-01-09T12:10:42.161Z,5.87
2023-01-09T12:14:00.093Z,5.95
2023-01-09T12:17:20.351Z,5.98
2023-01-09T12:20:49.100Z,5.94
2023-01-09T12:24:05.258Z,5.98
2023-01-09T12:31:28.503Z,5.92
2023-01-09T12:34:38.250Z,6.07
2023-01-09T12:38:08.252Z,6.06
2023-01-09T12:41:27.585Z,6.14
2023-01-09T12:45:11.845Z,6.14
2023-01-09T12:48:38.834Z,6.20
2023-01-09T12:51:47.522Z,6.22
2023-01-09T12:54:57.484Z,6.18
2023-01-09T12:58:04.246Z,5.98
2023-01-09T13:01:13.439Z,5.98
2023-01-09T13:04:22.150Z,6.05
2023-01-09T13:07:30.177Z,6.01
2023-01-09T13:10:49.373Z,5.97
2023-01-09T13:14:07.156Z,6.04
2023-01-09T13:17:18.691Z,6.01
2023-01-09T13:20:24.855Z,6.06
2023-01-09T13:24:04.103Z,6.04
2023-01-09T13:27:11.456Z,6.00
2023-01-09T13:30:13.525Z,5.97
2023-01-09T13:33:29.928Z,6.07
2023-01-09T13:43:15.774Z,6.13
2023-01-09T13:46:20.543Z,6.14
2023-01-09T13:54:03.551Z,6.14
2023-01-09T14:13:20.888Z,6.24
2023-01-09T14:23:52.644Z,6.21
2023-01-09T14:34:43.466Z,6.27
2023-01-09T14:38:30.696Z,6.16
2023-01-09T14:42:20.511Z,6.13
2023-01-09T14:45:26.546Z,6.26
2023-01-09T14:48:42.382Z,6.25
2023-01-09T14:51:52.453Z,6.21
2023-01-09T14:55:23.586Z,6.19
2023-01-09T14:58:42.423Z,6.21
2023-01-09T15:01:51.939Z,6.16
2023-01-09T15:05:06.427Z,6.24
2023-01-09T15:08:23.477Z,6.32
2023-01-09T15:11:27.601Z,6.28
2023-01-09T15:14:40.140Z,6.21
2023-01-09T15:18:04.066Z,6.16
2023-01-09T15:21:09.130Z,6.20
2023-01-09T15:24:27.445Z,6.27
2023-01-09T15:27:30.482Z,6.28
2023-01-09T15:30:36.207Z,6.28
2023-01-09T15:33:45.871Z,6.23
2023-01-09T15:36:53.639Z,6.24
2023-01-09T15:40:03.736Z,6.23
2023-01-09T15:43:15.403Z,6.25
2023-01-09T15:46:19.766Z,6.27
2023-01-09T15:49:22.251Z,6.26
2023-01-09T15:52:24.704Z,6.24
2023-01-09T15:55:35.403Z,6.27
2023-01-09T15:58:48.459Z,6.26
2023-01-09T16:02:18.468Z,6.22
2023-01-09T16:05:21.312Z,6.09
2023-01-09T16:08:50.351Z,5.94
2023-01-09T16:11:56.433Z,5.87
2023-01-09T16:15:01.263Z,5.79
2023-01-09T16:18:07.595Z,5.82
2023-01-09T16:21:12.542Z,5.80
2023-01-09T16:24:15.075Z,5.73
2023-01-09T16:27:17.016Z,5.76
2023-01-09T16:30:27.240Z,5.71
2023-01-09T16:33:31.477Z,5.72
2023-01-09T16:36:34.991Z,5.71
2023-01-09T16:39:38.775Z,5.74
2023-01-09T16:42:59.418Z,5.81
2023-01-09T16:46:01.746Z,5.92
2023-01-09T16:49:26.915Z,5.91
2023-01-09T16:52:29.602Z,5.94
2023-01-09T16:55:31.760Z,5.88
2023-01-09T16:58:36.032Z,5.92
2023-01-09T17:01:38.260Z,5.94
2023-01-09T17:04:40.438Z,6.04
2023-01-09T17:07:42.482Z,6.04
2023-01-09T17:10:44.641Z,6.05
2023-01-09T17:13:49.599Z,6.00
2023-01-09T17:16:51.739Z,5.94
2023-01-09T17:19:53.895Z,5.88
2023-01-09T17:22:56.551Z,5.90
2023-01-09T17:26:18.666Z,5.89
2023-01-09T17:29:21.330Z,5.91
2023-01-09T17:32:23.532Z,5.88
2023-01-09T17:35:25.747Z,5.85
2023-01-09T17:38:28.140Z,5.83
2023-01-09T17:41:32.096Z,5.90
2023-01-09T17:44:34.397Z,5.93
2023-01-09T17:47:36.503Z,5.96
2023-01-09T17:50:38.700Z,5.93
2023-01-09T17:53:40.782Z,5.93
2023-01-09T17:56:52.350Z,5.93
2023-01-09T17:59:54.819Z,5.88
2023-01-09T18:02:57.355Z,5.85
2023-01-09T18:06:01.333Z,5.80
2023-01-09T18:09:06.949Z,5.81
2023-01-09T18:12:09.478Z,5.81
2023-01-09T18:15:11.579Z,5.74
2023-01-09T18:18:16.085Z,5.74
2023-01-09T18:21:20.627Z,5.73
2023-01-09T18:24:24.192Z,5.78
2023-01-09T18:27:26.986Z,5.73
2023-01-09T18:30:29.325Z,5.77
2023-01-09T18:33:32.885Z,5.73
2023-01-09T18:36:35.996Z,5.69
2023-01-09T18:39:38.446Z,5.70
2023-01-09T18:42:40.970Z,5.74
2023-01-09T18:45:43.124Z,5.74
2023-01-09T18:48:45.280Z,5.74
2023-01-09T18:51:47.354Z,5.79
2023-01-09T18:54:49.409Z,5.78
2023-01-09T18:57:52.585Z,5.81
2023-01-09T19:00:56.268Z,5.84
2023-01-09T19:03:59.824Z,5.85
2023-01-09T19:07:02.069Z,5.87
2023-01-09T19:10:04.538Z,5.87
2023-01-09T19:13:06.696Z,5.85
2023-01-09T19:16:11.472Z,5.85
2023-01-09T19:19:13.840Z,5.91
2023-01-09T19:22:16.314Z,5.88
2023-01-09T19:25:18.571Z,5.86
2023-01-09T19:28:21.808Z,5.83
2023-01-09T19:31:25.807Z,5.82
2023-01-09T19:34:29.105Z,5.85
2023-01-09T19:37:32.960Z,5.87
2023-01-09T19:40:36.446Z,5.87
2023-01-09T19:43:40.551Z,5.90
2023-01-09T19:46:43.412Z,5.86
2023-01-09T19:49:47.231Z,5.81
2023-01-09T19:52:51.066Z,5.77
2023-01-09T19:55:53.804Z,5.75
2023-01-09T19:59:01.316Z,5.77
2023-01-09T20:02:03.816Z,5.74
2023-01-09T20:05:09.132Z,5.79
2023-01-09T20:08:11.751Z,5.82
2023-01-09T20:11:15.936Z,5.82
2023-01-09T20:14:19.791Z,5.84
2023-01-09T20:17:22.384Z,5.82
2023-01-09T20:20:25.091Z,5.76
2023-01-09T20:23:28.567Z,5.73
2023-01-09T20:26:31.884Z,5.78
2023-01-09T20:29:34.678Z,5.83
2023-01-09T20:32:38.790Z,5.84
2023-01-09T20:35:41.962Z,5.79
2023-01-09T20:38:44.310Z,5.77
2023-01-09T20:41:46.574Z,5.78
2023-01-09T20:44:49.213Z,5.82
2023-01-09T20:47:54.291Z,5.80
2023-01-09T20:50:56.804Z,5.84
2023-01-09T20:53:59.511Z,5.80
2023-01-09T20:57:03.758Z,5.79
2023-01-09T21:00:07.779Z,5.80
2023-01-09T21:03:12.228Z,5.83
2023-01-09T21:06:17.275Z,5.76
2023-01-09T21:09:21.248Z,5.75
2023-01-09T21:12:34.967Z,5.69
2023-01-09T21:15:39.050Z,5.69
2023-01-09T21:18:43.881Z,5.69
2023-01-09T21:21:46.670Z,5.73
2023-01-09T21:24:50.815Z,5.72
2023-01-09T21:27:53.232Z,5.73
2023-01-09T21:30:55.314Z,5.70
2023-01-09T21:33:57.819Z,5.74
2023-01-09T21:37:00.540Z,5.80
2023-01-09T21:40:06.293Z,5.77
2023-01-09T21:43:33.765Z,5.74
2023-01-09T21:46:54.825Z,5.74
2023-01-09T21:49:57.346Z,5.73
2023-01-09T21:52:59.952Z,5.74
2023-01-09T21:56:03.898Z,5.76
2023-01-09T21:59:06.282Z,5.73
2023-01-09T22:02:12.326Z,5.68
2023-01-09T22:05:14.694Z,5.67
2023-01-09T22:08:17.586Z,5.70
2023-01-09T22:11:19.980Z,5.70
2023-01-09T22:14:22.491Z,5.66
2023-01-09T22:17:25.785Z,5.73
2023-01-09T22:20:28.137Z,5.77
2023-01-09T22:23:30.492Z,5.76
2023-01-09T22:26:35.161Z,5.73
2023-01-09T22:29:37.605Z,5.72
2023-01-09T22:32:41.116Z,5.76
2023-01-09T22:35:44.448Z,5.77
2023-01-09T22:38:47.297Z,5.79
2023-01-09T22:41:55.302Z,5.81
2023-01-09T22:44:57.960Z,5.78
2023-01-09T22:48:00.253Z,5.80
2023-01-09T22:51:22.171Z,5.76
2023-01-09T22:54:25.047Z,5.79
2023-01-09T22:57:27.172Z,5.77
2023-01-09T23:00:29.383Z,5.81
2023-01-09T23:03:32.000Z,5.87
2023-01-09T23:06:34.233Z,5.85
2023-01-09T23:09:36.474Z,5.89
2023-01-09T23:12:38.613Z,5.87
2023-01-09T23:15:41.269Z,5.85
2023-01-09T23:18:43.803Z,5.81
2023-01-09T23:21:46.128Z,5.76
2023-01-09T23:24:48.600Z,5.78
2023-01-09T23:27:51.028Z,5.79
2023-01-09T23:30:54.604Z,5.79
2023-01-09T23:33:57.268Z,5.76
2023-01-09T23:37:00.870Z,5.84
2023-01-09T23:40:04.280Z,5.85
2023-01-09T23:43:09.398Z,5.82
2023-01-09T23:46:15.323Z,5.79
2023-01-09T23:49:19.452Z,5.72
2023-01-09T23:52:21.653Z,5.70
2023-01-09T23:55:24.539Z,5.69
2023-01-09T23:58:27.442Z,5.71
